sensor_id;sensor_type;location;lat;lon;timestamp;P1;durP1;ratioP1;P2;durP2;ratioP2
6376;SDS011;3221;48.858;10.128;2023-12-14T00:01:50;4.00;;;3.60;;
6376;SDS011;3221;48.858;10.128;2023-12-14T00:04:18;3.40;;;3.10;;
6376;SDS011;3221;48.858;10.128;2023-12-14T00:06:45;4.17;;;3.23;;
6376;SDS011;3221;48.858;10.128;2023-12-14T00:09:12;3.70;;;3.40;;
6376;SDS011;3221;48.858;10.128;2023-12-14T00:11:41;4.00;;;3.60;;
6376;SDS011;3221;48.858;10.128;2023-12-14T00:14:08;3.70;;;3.40;;
6376;SDS011;3221;48.858;10.128;2023-12-14T00:16:39;4.27;;;3.87;;
6376;SDS011;3221;48.858;10.128;2023-12-14T00:19:06;4.97;;;3.43;;
6376;SDS011;3221;48.858;10.128;2023-12-14T00:21:38;4.00;;;3.60;;
6376;SDS011;3221;48.858;10.128;2023-12-14T00:24:08;3.80;;;3.50;;
6376;SDS011;3221;48.858;10.128;2023-12-14T00:26:35;3.80;;;3.40;;
6376;SDS011;3221;48.858;10.128;2023-12-14T00:29:07;4.33;;;3.40;;
6376;SDS011;3221;48.858;10.128;2023-12-14T00:31:34;4.40;;;4.00;;
6376;SDS011;3221;48.858;10.128;2023-12-14T00:34:01;4.20;;;3.80;;
6376;SDS011;3221;48.858;10.128;2023-12-14T00:36:29;4.70;;;4.17;;
6376;SDS011;3221;48.858;10.128;2023-12-14T00:38:56;5.00;;;4.50;;
6376;SDS011;3221;48.858;10.128;2023-12-14T00:41:23;5.63;;;4.80;;
6376;SDS011;3221;48.858;10.128;2023-12-14T00:43:50;4.87;;;4.47;;
6376;SDS011;3221;48.858;10.128;2023-12-14T00:46:17;4.60;;;4.20;;
6376;SDS011;3221;48.858;10.128;2023-12-14T00:48:44;4.90;;;4.40;;
6376;SDS011;3221;48.858;10.128;2023-12-14T00:51:11;4.50;;;4.10;;
6376;SDS011;3221;48.858;10.128;2023-12-14T00:53:37;4.00;;;3.70;;
6376;SDS011;3221;48.858;10.128;2023-12-14T00:56:06;3.90;;;3.60;;
6376;SDS011;3221;48.858;10.128;2023-12-14T00:58:34;3.77;;;3.40;;
6376;SDS011;3221;48.858;10.128;2023-12-14T01:01:01;4.23;;;3.83;;
6376;SDS011;3221;48.858;10.128;2023-12-14T01:03:28;4.90;;;4.50;;
6376;SDS011;3221;48.858;10.128;2023-12-14T01:05:55;6.57;;;4.70;;
6376;SDS011;3221;48.858;10.128;2023-12-14T01:08:23;4.40;;;4.00;;
6376;SDS011;3221;48.858;10.128;2023-12-14T01:10:49;4.43;;;4.03;;
6376;SDS011;3221;48.858;10.128;2023-12-14T01:13:17;4.53;;;4.13;;
6376;SDS011;3221;48.858;10.128;2023-12-14T01:15:44;4.43;;;4.03;;
6376;SDS011;3221;48.858;10.128;2023-12-14T01:18:11;5.30;;;4.13;;
6376;SDS011;3221;48.858;10.128;2023-12-14T01:20:39;4.00;;;3.70;;
6376;SDS011;3221;48.858;10.128;2023-12-14T01:23:06;4.10;;;3.80;;
6376;SDS011;3221;48.858;10.128;2023-12-14T01:25:36;3.77;;;3.47;;
6376;SDS011;3221;48.858;10.128;2023-12-14T01:28:03;4.00;;;3.70;;
6376;SDS011;3221;48.858;10.128;2023-12-14T01:30:31;3.73;;;3.43;;
6376;SDS011;3221;48.858;10.128;2023-12-14T01:32:57;4.10;;;3.80;;
6376;SDS011;3221;48.858;10.128;2023-12-14T01:35:24;4.30;;;3.90;;
6376;SDS011;3221;48.858;10.128;2023-12-14T01:37:51;5.57;;;5.00;;
6376;SDS011;3221;48.858;10.128;2023-12-14T01:40:19;5.33;;;4.83;;
6376;SDS011;3221;48.858;10.128;2023-12-14T01:42:46;5.20;;;4.73;;
6376;SDS011;3221;48.858;10.128;2023-12-14T01:45:14;4.70;;;4.30;;
6376;SDS011;3221;48.858;10.128;2023-12-14T01:47:43;5.17;;;4.67;;
6376;SDS011;3221;48.858;10.128;2023-12-14T01:50:09;5.20;;;4.50;;
6376;SDS011;3221;48.858;10.128;2023-12-14T01:52:37;4.80;;;4.40;;
6376;SDS011;3221;48.858;10.128;2023-12-14T01:55:04;5.30;;;4.80;;
6376;SDS011;3221;48.858;10.128;2023-12-14T01:57:31;5.43;;;4.93;;
6376;SDS011;3221;48.858;10.128;2023-12-14T01:59:58;5.33;;;4.83;;
6376;SDS011;3221;48.858;10.128;2023-12-14T02:02:25;5.53;;;4.97;;
6376;SDS011;3221;48.858;10.128;2023-12-14T02:04:52;5.63;;;4.97;;
6376;SDS011;3221;48.858;10.128;2023-12-14T02:07:19;5.60;;;5.10;;
6376;SDS011;3221;48.858;10.128;2023-12-14T02:09:46;5.77;;;5.20;;
6376;SDS011;3221;48.858;10.128;2023-12-14T02:12:13;5.70;;;5.10;;
6376;SDS011;3221;48.858;10.128;2023-12-14T02:14:40;5.97;;;5.37;;
6376;SDS011;3221;48.858;10.128;2023-12-14T02:17:07;5.67;;;5.17;;
6376;SDS011;3221;48.858;10.128;2023-12-14T02:19:34;9.53;;;7.20;;
6376;SDS011;3221;48.858;10.128;2023-12-14T02:22:02;6.63;;;5.47;;
6376;SDS011;3221;48.858;10.128;2023-12-14T02:24:29;6.03;;;5.40;;
6376;SDS011;3221;48.858;10.128;2023-12-14T02:26:56;7.40;;;6.10;;
6376;SDS011;3221;48.858;10.128;2023-12-14T02:29:29;7.37;;;6.37;;
6376;SDS011;3221;48.858;10.128;2023-12-14T02:31:56;8.43;;;7.00;;
6376;SDS011;3221;48.858;10.128;2023-12-14T02:34:23;9.07;;;7.00;;
6376;SDS011;3221;48.858;10.128;2023-12-14T02:36:51;7.70;;;6.23;;
6376;SDS011;3221;48.858;10.128;2023-12-14T02:39:18;8.00;;;6.60;;
6376;SDS011;3221;48.858;10.128;2023-12-14T02:41:45;7.47;;;6.57;;
6376;SDS011;3221;48.858;10.128;2023-12-14T02:44:12;7.20;;;6.33;;
6376;SDS011;3221;48.858;10.128;2023-12-14T02:46:39;10.97;;;7.97;;
6376;SDS011;3221;48.858;10.128;2023-12-14T02:49:06;8.10;;;6.70;;
6376;SDS011;3221;48.858;10.128;2023-12-14T02:51:32;8.73;;;6.07;;
6376;SDS011;3221;48.858;10.128;2023-12-14T02:54:00;7.33;;;6.47;;
6376;SDS011;3221;48.858;10.128;2023-12-14T02:56:27;8.20;;;6.17;;
6376;SDS011;3221;48.858;10.128;2023-12-14T02:58:54;7.47;;;6.30;;
6376;SDS011;3221;48.858;10.128;2023-12-14T03:01:21;7.83;;;6.70;;
6376;SDS011;3221;48.858;10.128;2023-12-14T03:03:47;7.57;;;6.33;;
6376;SDS011;3221;48.858;10.128;2023-12-14T03:06:14;8.47;;;6.83;;
6376;SDS011;3221;48.858;10.128;2023-12-14T03:08:41;7.27;;;5.90;;
6376;SDS011;3221;48.858;10.128;2023-12-14T03:11:08;6.90;;;6.20;;
6376;SDS011;3221;48.858;10.128;2023-12-14T03:13:35;7.17;;;5.90;;
6376;SDS011;3221;48.858;10.128;2023-12-14T03:16:02;7.67;;;6.00;;
6376;SDS011;3221;48.858;10.128;2023-12-14T03:18:29;8.80;;;6.57;;
6376;SDS011;3221;48.858;10.128;2023-12-14T03:20:56;6.97;;;6.13;;
6376;SDS011;3221;48.858;10.128;2023-12-14T03:23:22;9.50;;;6.50;;
6376;SDS011;3221;48.858;10.128;2023-12-14T03:25:49;6.90;;;6.20;;
6376;SDS011;3221;48.858;10.128;2023-12-14T03:28:16;7.97;;;6.10;;
6376;SDS011;3221;48.858;10.128;2023-12-14T03:30:43;7.33;;;5.90;;
6376;SDS011;3221;48.858;10.128;2023-12-14T03:33:10;8.47;;;6.07;;
6376;SDS011;3221;48.858;10.128;2023-12-14T03:35:37;7.17;;;6.37;;
6376;SDS011;3221;48.858;10.128;2023-12-14T03:38:04;8.20;;;6.23;;
6376;SDS011;3221;48.858;10.128;2023-12-14T03:40:32;7.40;;;5.80;;
6376;SDS011;3221;48.858;10.128;2023-12-14T03:42:58;6.47;;;5.73;;
6376;SDS011;3221;48.858;10.128;2023-12-14T03:45:25;6.97;;;5.77;;
6376;SDS011;3221;48.858;10.128;2023-12-14T03:47:52;10.23;;;6.90;;
6376;SDS011;3221;48.858;10.128;2023-12-14T03:50:19;7.53;;;6.70;;
6376;SDS011;3221;48.858;10.128;2023-12-14T03:52:46;8.27;;;6.07;;
6376;SDS011;3221;48.858;10.128;2023-12-14T03:55:14;7.00;;;6.30;;
6376;SDS011;3221;48.858;10.128;2023-12-14T03:57:42;7.20;;;6.00;;
6376;SDS011;3221;48.858;10.128;2023-12-14T04:00:12;8.83;;;6.93;;
6376;SDS011;3221;48.858;10.128;2023-12-14T04:02:40;9.20;;;6.57;;
6376;SDS011;3221;48.858;10.128;2023-12-14T04:05:07;7.07;;;6.23;;
6376;SDS011;3221;48.858;10.128;2023-12-14T04:07:38;7.37;;;6.10;;
6376;SDS011;3221;48.858;10.128;2023-12-14T04:10:09;7.07;;;6.17;;
6376;SDS011;3221;48.858;10.128;2023-12-14T04:12:37;8.07;;;6.40;;
6376;SDS011;3221;48.858;10.128;2023-12-14T04:15:04;8.10;;;6.20;;
6376;SDS011;3221;48.858;10.128;2023-12-14T04:17:32;7.87;;;6.43;;
6376;SDS011;3221;48.858;10.128;2023-12-14T04:20:00;6.93;;;6.20;;
6376;SDS011;3221;48.858;10.128;2023-12-14T04:22:29;11.40;;;7.07;;
6376;SDS011;3221;48.858;10.128;2023-12-14T04:24:56;8.33;;;6.53;;
6376;SDS011;3221;48.858;10.128;2023-12-14T04:27:23;8.33;;;6.17;;
6376;SDS011;3221;48.858;10.128;2023-12-14T04:29:53;8.00;;;6.20;;
6376;SDS011;3221;48.858;10.128;2023-12-14T04:32:20;8.07;;;6.40;;
6376;SDS011;3221;48.858;10.128;2023-12-14T04:34:47;8.07;;;6.70;;
6376;SDS011;3221;48.858;10.128;2023-12-14T04:37:14;7.57;;;6.77;;
6376;SDS011;3221;48.858;10.128;2023-12-14T04:39:41;7.10;;;6.40;;
6376;SDS011;3221;48.858;10.128;2023-12-14T04:42:08;8.00;;;7.20;;
6376;SDS011;3221;48.858;10.128;2023-12-14T04:44:35;7.73;;;6.47;;
6376;SDS011;3221;48.858;10.128;2023-12-14T04:47:02;7.00;;;6.30;;
6376;SDS011;3221;48.858;10.128;2023-12-14T04:49:29;7.70;;;6.60;;
6376;SDS011;3221;48.858;10.128;2023-12-14T04:51:55;7.00;;;6.27;;
6376;SDS011;3221;48.858;10.128;2023-12-14T04:54:22;8.10;;;6.50;;
6376;SDS011;3221;48.858;10.128;2023-12-14T04:56:49;11.77;;;9.03;;
6376;SDS011;3221;48.858;10.128;2023-12-14T04:59:16;9.97;;;8.30;;
6376;SDS011;3221;48.858;10.128;2023-12-14T05:01:42;9.87;;;8.10;;
6376;SDS011;3221;48.858;10.128;2023-12-14T05:04:09;10.93;;;8.80;;
6376;SDS011;3221;48.858;10.128;2023-12-14T05:06:38;11.30;;;8.27;;
6376;SDS011;3221;48.858;10.128;2023-12-14T05:09:05;10.03;;;8.13;;
6376;SDS011;3221;48.858;10.128;2023-12-14T05:11:33;9.20;;;8.03;;
6376;SDS011;3221;48.858;10.128;2023-12-14T05:14:00;8.87;;;7.90;;
6376;SDS011;3221;48.858;10.128;2023-12-14T05:16:27;10.90;;;8.30;;
6376;SDS011;3221;48.858;10.128;2023-12-14T05:18:54;9.03;;;7.60;;
6376;SDS011;3221;48.858;10.128;2023-12-14T05:21:21;9.27;;;8.00;;
6376;SDS011;3221;48.858;10.128;2023-12-14T05:23:48;9.03;;;7.63;;
6376;SDS011;3221;48.858;10.128;2023-12-14T05:26:15;8.70;;;7.10;;
6376;SDS011;3221;48.858;10.128;2023-12-14T05:28:42;10.10;;;7.60;;
6376;SDS011;3221;48.858;10.128;2023-12-14T05:31:09;12.53;;;8.30;;
6376;SDS011;3221;48.858;10.128;2023-12-14T05:33:37;10.03;;;8.93;;
6376;SDS011;3221;48.858;10.128;2023-12-14T05:36:05;12.40;;;10.13;;
6376;SDS011;3221;48.858;10.128;2023-12-14T05:38:41;11.20;;;9.10;;
6376;SDS011;3221;48.858;10.128;2023-12-14T05:41:08;13.53;;;11.37;;
6376;SDS011;3221;48.858;10.128;2023-12-14T05:43:36;10.63;;;9.03;;
6376;SDS011;3221;48.858;10.128;2023-12-14T05:46:03;11.40;;;9.73;;
6376;SDS011;3221;48.858;10.128;2023-12-14T05:48:30;11.17;;;9.17;;
6376;SDS011;3221;48.858;10.128;2023-12-14T05:50:57;12.53;;;9.47;;
6376;SDS011;3221;48.858;10.128;2023-12-14T05:53:26;10.70;;;9.07;;
6376;SDS011;3221;48.858;10.128;2023-12-14T05:55:53;12.73;;;9.23;;
6376;SDS011;3221;48.858;10.128;2023-12-14T05:58:20;13.20;;;10.30;;
6376;SDS011;3221;48.858;10.128;2023-12-14T06:00:53;10.87;;;9.47;;
6376;SDS011;3221;48.858;10.128;2023-12-14T06:03:20;12.37;;;9.87;;
6376;SDS011;3221;48.858;10.128;2023-12-14T06:05:47;11.63;;;9.27;;
6376;SDS011;3221;48.858;10.128;2023-12-14T06:08:14;14.10;;;10.00;;
6376;SDS011;3221;48.858;10.128;2023-12-14T06:10:41;12.03;;;9.57;;
6376;SDS011;3221;48.858;10.128;2023-12-14T06:13:07;12.63;;;9.90;;
6376;SDS011;3221;48.858;10.128;2023-12-14T06:15:34;10.97;;;9.00;;
6376;SDS011;3221;48.858;10.128;2023-12-14T06:18:01;11.03;;;9.17;;
6376;SDS011;3221;48.858;10.128;2023-12-14T06:20:28;12.23;;;9.30;;
6376;SDS011;3221;48.858;10.128;2023-12-14T06:22:55;10.97;;;9.20;;
6376;SDS011;3221;48.858;10.128;2023-12-14T06:25:22;11.00;;;9.40;;
6376;SDS011;3221;48.858;10.128;2023-12-14T06:27:49;12.23;;;9.93;;
6376;SDS011;3221;48.858;10.128;2023-12-14T06:30:16;11.17;;;9.43;;
6376;SDS011;3221;48.858;10.128;2023-12-14T06:32:43;11.87;;;9.80;;
6376;SDS011;3221;48.858;10.128;2023-12-14T06:35:10;12.93;;;9.53;;
6376;SDS011;3221;48.858;10.128;2023-12-14T06:37:37;12.70;;;9.50;;
6376;SDS011;3221;48.858;10.128;2023-12-14T06:40:04;11.00;;;9.30;;
6376;SDS011;3221;48.858;10.128;2023-12-14T06:42:32;12.07;;;9.30;;
6376;SDS011;3221;48.858;10.128;2023-12-14T06:45:00;13.17;;;9.83;;
6376;SDS011;3221;48.858;10.128;2023-12-14T06:47:28;12.87;;;10.37;;
6376;SDS011;3221;48.858;10.128;2023-12-14T06:49:55;11.87;;;9.90;;
6376;SDS011;3221;48.858;10.128;2023-12-14T06:52:25;12.13;;;10.07;;
6376;SDS011;3221;48.858;10.128;2023-12-14T06:54:52;11.70;;;9.30;;
6376;SDS011;3221;48.858;10.128;2023-12-14T06:57:19;15.80;;;10.33;;
6376;SDS011;3221;48.858;10.128;2023-12-14T06:59:46;11.60;;;9.33;;
6376;SDS011;3221;48.858;10.128;2023-12-14T07:02:13;11.30;;;9.50;;
6376;SDS011;3221;48.858;10.128;2023-12-14T07:04:39;11.80;;;10.17;;
6376;SDS011;3221;48.858;10.128;2023-12-14T07:07:06;11.83;;;9.30;;
6376;SDS011;3221;48.858;10.128;2023-12-14T07:09:34;11.70;;;9.60;;
6376;SDS011;3221;48.858;10.128;2023-12-14T07:12:01;11.80;;;9.40;;
6376;SDS011;3221;48.858;10.128;2023-12-14T07:14:29;11.93;;;9.80;;
6376;SDS011;3221;48.858;10.128;2023-12-14T07:16:56;11.80;;;9.50;;
6376;SDS011;3221;48.858;10.128;2023-12-14T07:19:23;10.60;;;9.13;;
6376;SDS011;3221;48.858;10.128;2023-12-14T07:21:50;11.57;;;10.00;;
6376;SDS011;3221;48.858;10.128;2023-12-14T07:24:17;12.13;;;9.80;;
6376;SDS011;3221;48.858;10.128;2023-12-14T07:26:44;12.23;;;10.20;;
6376;SDS011;3221;48.858;10.128;2023-12-14T07:29:11;12.03;;;9.80;;
6376;SDS011;3221;48.858;10.128;2023-12-14T07:31:38;13.40;;;10.57;;
6376;SDS011;3221;48.858;10.128;2023-12-14T07:34:05;14.03;;;10.73;;
6376;SDS011;3221;48.858;10.128;2023-12-14T07:36:32;18.93;;;13.63;;
6376;SDS011;3221;48.858;10.128;2023-12-14T07:38:59;21.00;;;15.20;;
6376;SDS011;3221;48.858;10.128;2023-12-14T07:41:27;19.13;;;13.13;;
6376;SDS011;3221;48.858;10.128;2023-12-14T07:43:56;19.33;;;13.93;;
6376;SDS011;3221;48.858;10.128;2023-12-14T07:46:23;18.73;;;13.07;;
6376;SDS011;3221;48.858;10.128;2023-12-14T07:48:50;18.10;;;12.57;;
6376;SDS011;3221;48.858;10.128;2023-12-14T07:51:17;20.20;;;13.70;;
6376;SDS011;3221;48.858;10.128;2023-12-14T07:53:44;19.17;;;13.97;;
6376;SDS011;3221;48.858;10.128;2023-12-14T07:56:13;17.20;;;12.70;;
6376;SDS011;3221;48.858;10.128;2023-12-14T07:58:40;16.80;;;12.97;;
6376;SDS011;3221;48.858;10.128;2023-12-14T08:01:07;16.60;;;12.17;;
6376;SDS011;3221;48.858;10.128;2023-12-14T08:03:34;16.07;;;11.67;;
6376;SDS011;3221;48.858;10.128;2023-12-14T08:06:02;16.63;;;11.63;;
6376;SDS011;3221;48.858;10.128;2023-12-14T08:08:29;15.97;;;12.23;;
6376;SDS011;3221;48.858;10.128;2023-12-14T08:10:55;15.63;;;11.87;;
6376;SDS011;3221;48.858;10.128;2023-12-14T08:13:22;17.03;;;12.07;;
6376;SDS011;3221;48.858;10.128;2023-12-14T08:15:49;17.97;;;12.60;;
6376;SDS011;3221;48.858;10.128;2023-12-14T08:18:17;15.73;;;11.83;;
6376;SDS011;3221;48.858;10.128;2023-12-14T08:20:44;15.37;;;12.53;;
6376;SDS011;3221;48.858;10.128;2023-12-14T08:23:11;16.37;;;13.07;;
6376;SDS011;3221;48.858;10.128;2023-12-14T08:25:38;16.37;;;12.60;;
6376;SDS011;3221;48.858;10.128;2023-12-14T08:28:05;15.07;;;12.57;;
6376;SDS011;3221;48.858;10.128;2023-12-14T08:30:32;16.47;;;13.13;;
6376;SDS011;3221;48.858;10.128;2023-12-14T08:32:59;17.60;;;13.23;;
6376;SDS011;3221;48.858;10.128;2023-12-14T08:35:26;15.80;;;12.83;;
6376;SDS011;3221;48.858;10.128;2023-12-14T08:37:54;15.97;;;13.50;;
6376;SDS011;3221;48.858;10.128;2023-12-14T08:40:21;15.83;;;13.17;;
6376;SDS011;3221;48.858;10.128;2023-12-14T08:42:48;15.50;;;13.10;;
6376;SDS011;3221;48.858;10.128;2023-12-14T08:45:15;15.70;;;12.63;;
6376;SDS011;3221;48.858;10.128;2023-12-14T08:47:42;15.53;;;12.70;;
6376;SDS011;3221;48.858;10.128;2023-12-14T08:50:09;16.60;;;13.00;;
6376;SDS011;3221;48.858;10.128;2023-12-14T08:52:36;16.40;;;12.57;;
6376;SDS011;3221;48.858;10.128;2023-12-14T08:55:04;16.07;;;13.20;;
6376;SDS011;3221;48.858;10.128;2023-12-14T08:57:31;15.93;;;12.30;;
6376;SDS011;3221;48.858;10.128;2023-12-14T08:59:58;16.00;;;12.20;;
6376;SDS011;3221;48.858;10.128;2023-12-14T09:02:25;15.13;;;11.77;;
6376;SDS011;3221;48.858;10.128;2023-12-14T09:04:53;16.03;;;12.77;;
6376;SDS011;3221;48.858;10.128;2023-12-14T09:07:19;16.13;;;12.37;;
6376;SDS011;3221;48.858;10.128;2023-12-14T09:09:46;16.60;;;12.00;;
6376;SDS011;3221;48.858;10.128;2023-12-14T09:12:13;15.10;;;12.37;;
6376;SDS011;3221;48.858;10.128;2023-12-14T09:14:40;16.47;;;12.87;;
6376;SDS011;3221;48.858;10.128;2023-12-14T09:17:07;17.60;;;12.40;;
6376;SDS011;3221;48.858;10.128;2023-12-14T09:19:34;17.37;;;13.00;;
6376;SDS011;3221;48.858;10.128;2023-12-14T09:22:01;16.37;;;12.57;;
6376;SDS011;3221;48.858;10.128;2023-12-14T09:24:28;16.67;;;12.80;;
6376;SDS011;3221;48.858;10.128;2023-12-14T09:26:56;15.23;;;12.30;;
6376;SDS011;3221;48.858;10.128;2023-12-14T09:29:23;15.10;;;11.93;;
6376;SDS011;3221;48.858;10.128;2023-12-14T09:31:50;16.23;;;11.77;;
6376;SDS011;3221;48.858;10.128;2023-12-14T09:34:17;16.33;;;12.43;;
6376;SDS011;3221;48.858;10.128;2023-12-14T09:36:44;16.57;;;12.20;;
6376;SDS011;3221;48.858;10.128;2023-12-14T09:39:11;15.60;;;12.17;;
6376;SDS011;3221;48.858;10.128;2023-12-14T09:41:38;15.67;;;12.23;;
6376;SDS011;3221;48.858;10.128;2023-12-14T09:44:06;15.40;;;11.27;;
6376;SDS011;3221;48.858;10.128;2023-12-14T09:46:34;14.10;;;11.33;;
6376;SDS011;3221;48.858;10.128;2023-12-14T09:49:03;14.60;;;11.03;;
6376;SDS011;3221;48.858;10.128;2023-12-14T09:51:34;14.33;;;10.43;;
6376;SDS011;3221;48.858;10.128;2023-12-14T09:54:01;13.20;;;10.73;;
6376;SDS011;3221;48.858;10.128;2023-12-14T09:56:29;13.50;;;10.17;;
6376;SDS011;3221;48.858;10.128;2023-12-14T09:58:56;17.87;;;11.83;;
6376;SDS011;3221;48.858;10.128;2023-12-14T10:01:25;14.50;;;11.10;;
6376;SDS011;3221;48.858;10.128;2023-12-14T10:04:09;13.20;;;10.40;;
6376;SDS011;3221;48.858;10.128;2023-12-14T10:06:38;13.27;;;10.00;;
6376;SDS011;3221;48.858;10.128;2023-12-14T10:09:05;16.60;;;10.93;;
6376;SDS011;3221;48.858;10.128;2023-12-14T10:11:36;14.83;;;10.90;;
6376;SDS011;3221;48.858;10.128;2023-12-14T10:14:17;14.53;;;10.60;;
6376;SDS011;3221;48.858;10.128;2023-12-14T10:16:44;15.87;;;11.23;;
6376;SDS011;3221;48.858;10.128;2023-12-14T10:19:12;15.33;;;10.87;;
6376;SDS011;3221;48.858;10.128;2023-12-14T10:21:39;14.37;;;11.00;;
6376;SDS011;3221;48.858;10.128;2023-12-14T10:24:07;14.60;;;11.17;;
6376;SDS011;3221;48.858;10.128;2023-12-14T10:26:34;16.23;;;10.57;;
6376;SDS011;3221;48.858;10.128;2023-12-14T10:29:02;14.30;;;10.90;;
6376;SDS011;3221;48.858;10.128;2023-12-14T10:31:31;15.00;;;10.40;;
6376;SDS011;3221;48.858;10.128;2023-12-14T10:33:58;15.03;;;11.43;;
6376;SDS011;3221;48.858;10.128;2023-12-14T10:36:25;14.17;;;10.63;;
6376;SDS011;3221;48.858;10.128;2023-12-14T10:38:54;14.17;;;10.57;;
6376;SDS011;3221;48.858;10.128;2023-12-14T10:41:23;14.47;;;10.50;;
6376;SDS011;3221;48.858;10.128;2023-12-14T10:43:55;13.53;;;10.33;;
6376;SDS011;3221;48.858;10.128;2023-12-14T10:46:43;15.93;;;11.70;;
6376;SDS011;3221;48.858;10.128;2023-12-14T10:49:14;15.80;;;11.00;;
6376;SDS011;3221;48.858;10.128;2023-12-14T10:51:42;15.40;;;11.03;;
6376;SDS011;3221;48.858;10.128;2023-12-14T10:54:12;13.67;;;10.13;;
6376;SDS011;3221;48.858;10.128;2023-12-14T10:56:41;13.63;;;10.87;;
6376;SDS011;3221;48.858;10.128;2023-12-14T10:59:08;14.23;;;10.93;;
6376;SDS011;3221;48.858;10.128;2023-12-14T11:01:35;16.00;;;11.83;;
6376;SDS011;3221;48.858;10.128;2023-12-14T11:04:05;14.77;;;11.47;;
6376;SDS011;3221;48.858;10.128;2023-12-14T11:06:36;14.90;;;11.30;;
6376;SDS011;3221;48.858;10.128;2023-12-14T11:09:05;15.17;;;11.10;;
6376;SDS011;3221;48.858;10.128;2023-12-14T11:11:40;14.40;;;10.57;;
6376;SDS011;3221;48.858;10.128;2023-12-14T11:14:11;16.27;;;11.67;;
6376;SDS011;3221;48.858;10.128;2023-12-14T11:16:40;16.00;;;11.33;;
6376;SDS011;3221;48.858;10.128;2023-12-14T11:21:48;13.93;;;10.57;;
6376;SDS011;3221;48.858;10.128;2023-12-14T11:24:24;12.57;;;9.90;;
6376;SDS011;3221;48.858;10.128;2023-12-14T11:26:53;15.03;;;10.80;;
6376;SDS011;3221;48.858;10.128;2023-12-14T11:29:20;16.57;;;11.43;;
6376;SDS011;3221;48.858;10.128;2023-12-14T11:31:48;14.80;;;11.17;;
6376;SDS011;3221;48.858;10.128;2023-12-14T11:34:16;14.57;;;10.73;;
6376;SDS011;3221;48.858;10.128;2023-12-14T11:36:43;15.47;;;10.37;;
6376;SDS011;3221;48.858;10.128;2023-12-14T11:39:12;12.70;;;10.00;;
6376;SDS011;3221;48.858;10.128;2023-12-14T11:41:39;12.87;;;10.20;;
6376;SDS011;3221;48.858;10.128;2023-12-14T11:44:06;14.17;;;10.30;;
6376;SDS011;3221;48.858;10.128;2023-12-14T11:46:33;14.33;;;10.23;;
6376;SDS011;3221;48.858;10.128;2023-12-14T11:49:00;13.90;;;10.10;;
6376;SDS011;3221;48.858;10.128;2023-12-14T11:51:30;13.37;;;10.30;;
6376;SDS011;3221;48.858;10.128;2023-12-14T11:54:00;14.57;;;10.30;;
6376;SDS011;3221;48.858;10.128;2023-12-14T11:56:28;15.27;;;10.40;;
6376;SDS011;3221;48.858;10.128;2023-12-14T11:58:57;16.77;;;10.67;;
6376;SDS011;3221;48.858;10.128;2023-12-14T12:01:24;13.80;;;10.03;;
6376;SDS011;3221;48.858;10.128;2023-12-14T12:03:52;13.33;;;10.40;;
6376;SDS011;3221;48.858;10.128;2023-12-14T12:06:19;17.07;;;10.30;;
6376;SDS011;3221;48.858;10.128;2023-12-14T12:08:48;14.27;;;10.07;;
6376;SDS011;3221;48.858;10.128;2023-12-14T12:11:19;11.93;;;9.90;;
6376;SDS011;3221;48.858;10.128;2023-12-14T12:13:54;15.07;;;10.40;;
6376;SDS011;3221;48.858;10.128;2023-12-14T12:16:21;12.37;;;9.67;;
6376;SDS011;3221;48.858;10.128;2023-12-14T12:18:48;12.53;;;9.70;;
6376;SDS011;3221;48.858;10.128;2023-12-14T12:21:17;15.17;;;10.40;;
6376;SDS011;3221;48.858;10.128;2023-12-14T12:23:44;13.37;;;9.57;;
6376;SDS011;3221;48.858;10.128;2023-12-14T12:26:10;13.10;;;9.60;;
6376;SDS011;3221;48.858;10.128;2023-12-14T12:28:37;14.43;;;10.00;;
6376;SDS011;3221;48.858;10.128;2023-12-14T12:31:04;12.10;;;8.90;;
6376;SDS011;3221;48.858;10.128;2023-12-14T12:33:31;14.23;;;9.30;;
6376;SDS011;3221;48.858;10.128;2023-12-14T12:36:04;13.10;;;9.33;;
6376;SDS011;3221;48.858;10.128;2023-12-14T12:38:31;10.80;;;8.43;;
6376;SDS011;3221;48.858;10.128;2023-12-14T12:40:58;14.43;;;9.60;;
6376;SDS011;3221;48.858;10.128;2023-12-14T12:43:27;11.80;;;9.07;;
6376;SDS011;3221;48.858;10.128;2023-12-14T12:45:54;12.03;;;8.53;;
6376;SDS011;3221;48.858;10.128;2023-12-14T12:48:20;11.43;;;8.50;;
6376;SDS011;3221;48.858;10.128;2023-12-14T12:50:53;10.50;;;8.53;;
6376;SDS011;3221;48.858;10.128;2023-12-14T12:53:19;11.17;;;8.73;;
6376;SDS011;3221;48.858;10.128;2023-12-14T12:55:46;12.30;;;8.93;;
6376;SDS011;3221;48.858;10.128;2023-12-14T12:58:13;13.50;;;8.83;;
6376;SDS011;3221;48.858;10.128;2023-12-14T13:00:41;11.53;;;8.70;;
6376;SDS011;3221;48.858;10.128;2023-12-14T13:03:07;13.77;;;9.63;;
6376;SDS011;3221;48.858;10.128;2023-12-14T13:05:36;12.37;;;9.37;;
6376;SDS011;3221;48.858;10.128;2023-12-14T13:08:03;13.13;;;9.43;;
6376;SDS011;3221;48.858;10.128;2023-12-14T13:10:30;11.70;;;9.63;;
6376;SDS011;3221;48.858;10.128;2023-12-14T13:12:58;13.70;;;9.87;;
6376;SDS011;3221;48.858;10.128;2023-12-14T13:15:26;12.83;;;10.13;;
6376;SDS011;3221;48.858;10.128;2023-12-14T13:17:56;12.83;;;9.80;;
6376;SDS011;3221;48.858;10.128;2023-12-14T13:20:23;11.67;;;9.00;;
6376;SDS011;3221;48.858;10.128;2023-12-14T13:22:50;13.27;;;10.00;;
6376;SDS011;3221;48.858;10.128;2023-12-14T13:25:18;14.90;;;10.40;;
6376;SDS011;3221;48.858;10.128;2023-12-14T13:27:46;14.80;;;10.10;;
6376;SDS011;3221;48.858;10.128;2023-12-14T13:30:13;14.10;;;10.07;;
6376;SDS011;3221;48.858;10.128;2023-12-14T13:32:44;14.73;;;10.47;;
6376;SDS011;3221;48.858;10.128;2023-12-14T13:35:12;14.37;;;10.60;;
6376;SDS011;3221;48.858;10.128;2023-12-14T13:37:39;13.40;;;10.23;;
6376;SDS011;3221;48.858;10.128;2023-12-14T13:40:06;15.13;;;11.43;;
6376;SDS011;3221;48.858;10.128;2023-12-14T13:42:33;15.50;;;11.07;;
6376;SDS011;3221;48.858;10.128;2023-12-14T13:45:04;15.77;;;11.57;;
6376;SDS011;3221;48.858;10.128;2023-12-14T13:47:32;18.10;;;11.53;;
6376;SDS011;3221;48.858;10.128;2023-12-14T13:49:59;15.97;;;11.37;;
6376;SDS011;3221;48.858;10.128;2023-12-14T13:52:26;16.07;;;11.10;;
6376;SDS011;3221;48.858;10.128;2023-12-14T13:54:57;15.47;;;11.43;;
6376;SDS011;3221;48.858;10.128;2023-12-14T13:57:25;16.53;;;10.83;;
6376;SDS011;3221;48.858;10.128;2023-12-14T13:59:53;13.27;;;10.70;;
6376;SDS011;3221;48.858;10.128;2023-12-14T14:02:20;15.53;;;11.60;;
6376;SDS011;3221;48.858;10.128;2023-12-14T14:04:48;15.80;;;11.43;;
6376;SDS011;3221;48.858;10.128;2023-12-14T14:07:15;15.97;;;11.13;;
6376;SDS011;3221;48.858;10.128;2023-12-14T14:09:42;15.57;;;11.97;;
6376;SDS011;3221;48.858;10.128;2023-12-14T14:12:09;16.10;;;11.90;;
6376;SDS011;3221;48.858;10.128;2023-12-14T14:14:36;14.47;;;11.43;;
6376;SDS011;3221;48.858;10.128;2023-12-14T14:17:02;15.13;;;10.97;;
6376;SDS011;3221;48.858;10.128;2023-12-14T14:19:32;13.87;;;11.00;;
6376;SDS011;3221;48.858;10.128;2023-12-14T14:21:59;15.97;;;11.60;;
6376;SDS011;3221;48.858;10.128;2023-12-14T14:24:26;16.00;;;11.50;;
6376;SDS011;3221;48.858;10.128;2023-12-14T14:26:53;14.10;;;11.37;;
6376;SDS011;3221;48.858;10.128;2023-12-14T14:29:20;15.10;;;11.87;;
6376;SDS011;3221;48.858;10.128;2023-12-14T14:31:47;14.83;;;11.30;;
6376;SDS011;3221;48.858;10.128;2023-12-14T14:34:14;17.00;;;12.73;;
6376;SDS011;3221;48.858;10.128;2023-12-14T14:36:41;14.67;;;12.00;;
6376;SDS011;3221;48.858;10.128;2023-12-14T14:39:10;15.73;;;11.80;;
6376;SDS011;3221;48.858;10.128;2023-12-14T14:41:37;15.17;;;11.87;;
6376;SDS011;3221;48.858;10.128;2023-12-14T14:44:03;14.73;;;11.37;;
6376;SDS011;3221;48.858;10.128;2023-12-14T14:46:30;18.63;;;13.00;;
6376;SDS011;3221;48.858;10.128;2023-12-14T14:48:57;16.00;;;12.20;;
6376;SDS011;3221;48.858;10.128;2023-12-14T14:51:27;18.20;;;13.37;;